sensor_id;sensor_type;location;lat;lon;timestamp;pressure;altitude;pressure_sealevel;temperature;humidity
10310;BME280;5200;43.236;27.986;2023-12-04T00:01:47;100535.59;;;2.47;100.00
10310;BME280;5200;43.236;27.986;2023-12-04T00:04:14;100516.25;;;2.35;100.00
10310;BME280;5200;43.236;27.986;2023-12-04T00:06:42;100527.28;;;2.40;100.00
10310;BME280;5200;43.236;27.986;2023-12-04T00:09:09;100518.31;;;2.28;100.00
10310;BME280;5200;43.236;27.986;2023-12-04T00:11:36;100496.44;;;2.15;100.00
10310;BME280;5200;43.236;27.986;2023-12-04T00:14:03;100530.78;;;2.39;100.00
10310;BME280;5200;43.236;27.986;2023-12-04T00:16:33;100506.03;;;2.13;100.00
10310;BME280;5200;43.236;27.986;2023-12-04T00:19:00;100506.88;;;2.14;100.00
10310;BME280;5200;43.236;27.986;2023-12-04T00:21:27;100528.97;;;2.22;100.00
10310;BME280;5200;43.236;27.986;2023-12-04T00:23:54;100497.44;;;1.94;100.00
10310;BME280;5200;43.236;27.986;2023-12-04T00:26:21;100501.22;;;2.05;100.00
10310;BME280;5200;43.236;27.986;2023-12-04T00:28:48;100554.38;;;2.16;100.00
10310;BME280;5200;43.236;27.986;2023-12-04T00:31:15;100551.78;;;2.16;100.00
10310;BME280;5200;43.236;27.986;2023-12-04T00:33:43;100562.31;;;2.13;100.00
10310;BME280;5200;43.236;27.986;2023-12-04T00:36:10;100587.66;;;2.07;100.00
10310;BME280;5200;43.236;27.986;2023-12-04T00:38:38;100591.34;;;2.02;100.00
10310;BME280;5200;43.236;27.986;2023-12-04T00:41:05;100597.09;;;1.89;100.00
10310;BME280;5200;43.236;27.986;2023-12-04T00:43:32;100616.53;;;2.00;100.00
10310;BME280;5200;43.236;27.986;2023-12-04T00:45:59;100612.91;;;1.83;100.00
10310;BME280;5200;43.236;27.986;2023-12-04T00:48:26;100618.47;;;1.95;100.00
10310;BME280;5200;43.236;27.986;2023-12-04T00:50:54;100598.13;;;1.85;100.00
10310;BME280;5200;43.236;27.986;2023-12-04T00:53:22;100568.75;;;1.85;100.00
10310;BME280;5200;43.236;27.986;2023-12-04T00:55:49;100578.56;;;1.97;100.00
10310;BME280;5200;43.236;27.986;2023-12-04T00:58:16;100556.59;;;1.85;100.00
10310;BME280;5200;43.236;27.986;2023-12-04T01:00:42;100582.25;;;1.93;100.00
10310;BME280;5200;43.236;27.986;2023-12-04T01:03:09;100602.22;;;1.91;100.00
10310;BME280;5200;43.236;27.986;2023-12-04T01:05:36;100586.13;;;1.83;100.00
10310;BME280;5200;43.236;27.986;2023-12-04T01:08:05;100604.19;;;1.86;100.00
10310;BME280;5200;43.236;27.986;2023-12-04T01:10:32;100602.88;;;1.76;100.00
10310;BME280;5200;43.236;27.986;2023-12-04T01:12:59;100563.59;;;1.64;100.00
10310;BME280;5200;43.236;27.986;2023-12-04T01:15:26;100555.56;;;1.50;100.00
10310;BME280;5200;43.236;27.986;2023-12-04T01:17:53;100615.34;;;1.67;100.00
10310;BME280;5200;43.236;27.986;2023-12-04T01:20:20;100630.13;;;1.65;100.00
10310;BME280;5200;43.236;27.986;2023-12-04T01:22:47;100621.00;;;1.57;100.00
10310;BME280;5200;43.236;27.986;2023-12-04T01:25:15;100623.91;;;1.49;100.00
10310;BME280;5200;43.236;27.986;2023-12-04T01:27:42;100638.25;;;1.37;100.00
10310;BME280;5200;43.236;27.986;2023-12-04T01:30:11;100695.88;;;1.64;100.00
10310;BME280;5200;43.236;27.986;2023-12-04T01:32:42;100661.53;;;1.39;100.00
10310;BME280;5200;43.236;27.986;2023-12-04T01:35:22;100709.91;;;1.81;100.00
10310;BME280;5200;43.236;27.986;2023-12-04T01:37:58;100704.16;;;1.74;100.00
10310;BME280;5200;43.236;27.986;2023-12-04T01:40:28;100723.53;;;1.86;100.00
10310;BME280;5200;43.236;27.986;2023-12-04T01:42:56;100718.09;;;1.92;100.00
10310;BME280;5200;43.236;27.986;2023-12-04T01:45:23;100696.69;;;1.87;100.00
10310;BME280;5200;43.236;27.986;2023-12-04T01:47:50;100707.38;;;2.00;100.00
10310;BME280;5200;43.236;27.986;2023-12-04T01:50:18;100674.69;;;1.75;100.00
10310;BME280;5200;43.236;27.986;2023-12-04T01:52:46;100713.03;;;2.09;100.00
10310;BME280;5200;43.236;27.986;2023-12-04T01:55:14;100711.47;;;2.05;100.00
10310;BME280;5200;43.236;27.986;2023-12-04T01:57:43;100675.41;;;1.79;100.00
10310;BME280;5200;43.236;27.986;2023-12-04T02:00:25;100714.31;;;1.99;100.00
10310;BME280;5200;43.236;27.986;2023-12-04T02:03:06;100720.53;;;1.95;100.00
10310;BME280;5200;43.236;27.986;2023-12-04T02:05:35;100709.78;;;1.84;100.00
10310;BME280;5200;43.236;27.986;2023-12-04T02:08:05;100676.56;;;1.51;100.00
10310;BME280;5200;43.236;27.986;2023-12-04T02:10:45;100727.50;;;1.52;100.00
10310;BME280;5200;43.236;27.986;2023-12-04T02:13:31;100671.44;;;1.07;100.00
10310;BME280;5200;43.236;27.986;2023-12-04T02:16:02;100704.75;;;1.16;100.00
10310;BME280;5200;43.236;27.986;2023-12-04T02:18:31;100704.44;;;1.24;100.00
10310;BME280;5200;43.236;27.986;2023-12-04T02:21:00;100690.88;;;1.17;100.00
10310;BME280;5200;43.236;27.986;2023-12-04T02:23:27;100654.56;;;0.97;100.00
10310;BME280;5200;43.236;27.986;2023-12-04T02:25:58;100642.97;;;0.83;100.00
10310;BME280;5200;43.236;27.986;2023-12-04T02:28:28;100697.81;;;0.95;100.00
10310;BME280;5200;43.236;27.986;2023-12-04T02:30:58;100646.94;;;0.70;100.00
10310;BME280;5200;43.236;27.986;2023-12-04T02:33:27;100706.75;;;0.88;100.00
10310;BME280;5200;43.236;27.986;2023-12-04T02:35:56;100717.19;;;0.84;100.00
10310;BME280;5200;43.236;27.986;2023-12-04T02:38:24;100739.84;;;0.79;100.00
10310;BME280;5200;43.236;27.986;2023-12-04T02:40:51;100746.97;;;0.74;100.00
10310;BME280;5200;43.236;27.986;2023-12-04T02:43:19;100746.97;;;0.74;100.00
10310;BME280;5200;43.236;27.986;2023-12-04T02:45:46;100713.06;;;0.57;100.00
10310;BME280;5200;43.236;27.986;2023-12-04T02:48:13;100711.09;;;0.63;100.00
10310;BME280;5200;43.236;27.986;2023-12-04T02:50:40;100745.94;;;0.78;100.00
10310;BME280;5200;43.236;27.986;2023-12-04T02:53:07;100734.66;;;0.79;100.00
10310;BME280;5200;43.236;27.986;2023-12-04T02:55:33;100783.84;;;1.04;100.00
10310;BME280;5200;43.236;27.986;2023-12-04T02:58:00;100752.28;;;0.93;100.00
10310;BME280;5200;43.236;27.986;2023-12-04T03:00:29;100734.63;;;0.81;100.00
10310;BME280;5200;43.236;27.986;2023-12-04T03:02:56;100772.06;;;0.96;100.00
10310;BME280;5200;43.236;27.986;2023-12-04T03:05:23;100737.59;;;0.70;100.00
10310;BME280;5200;43.236;27.986;2023-12-04T03:07:50;100798.75;;;0.98;100.00
10310;BME280;5200;43.236;27.986;2023-12-04T03:10:16;100797.25;;;0.92;100.00
10310;BME280;5200;43.236;27.986;2023-12-04T03:12:43;100772.03;;;0.74;100.00
10310;BME280;5200;43.236;27.986;2023-12-04T03:15:10;100792.50;;;0.80;100.00
10310;BME280;5200;43.236;27.986;2023-12-04T03:17:39;100815.78;;;0.81;100.00
10310;BME280;5200;43.236;27.986;2023-12-04T03:20:07;100803.50;;;0.87;100.00
10310;BME280;5200;43.236;27.986;2023-12-04T03:22:34;100802.69;;;0.84;100.00
10310;BME280;5200;43.236;27.986;2023-12-04T03:25:03;100798.44;;;0.83;100.00
10310;BME280;5200;43.236;27.986;2023-12-04T03:27:30;100774.91;;;0.66;100.00
10310;BME280;5200;43.236;27.986;2023-12-04T03:29:57;100715.81;;;0.29;100.00
10310;BME280;5200;43.236;27.986;2023-12-04T03:32:23;100769.81;;;0.63;100.00
10310;BME280;5200;43.236;27.986;2023-12-04T03:34:52;100790.94;;;0.76;100.00
10310;BME280;5200;43.236;27.986;2023-12-04T03:37:19;100792.34;;;0.84;100.00
10310;BME280;5200;43.236;27.986;2023-12-04T03:39:46;100771.72;;;0.58;100.00
10310;BME280;5200;43.236;27.986;2023-12-04T03:42:13;100788.56;;;0.70;100.00
10310;BME280;5200;43.236;27.986;2023-12-04T03:44:39;100804.84;;;0.73;100.00
10310;BME280;5200;43.236;27.986;2023-12-04T03:47:06;100820.22;;;0.78;100.00
10310;BME280;5200;43.236;27.986;2023-12-04T03:49:33;100824.53;;;0.77;100.00
10310;BME280;5200;43.236;27.986;2023-12-04T03:52:02;100797.19;;;0.70;100.00
10310;BME280;5200;43.236;27.986;2023-12-04T03:54:29;100814.41;;;0.71;100.00
10310;BME280;5200;43.236;27.986;2023-12-04T03:56:56;100834.56;;;0.87;100.00
10310;BME280;5200;43.236;27.986;2023-12-04T03:59:22;100828.69;;;0.83;100.00
10310;BME280;5200;43.236;27.986;2023-12-04T04:01:49;100832.78;;;0.89;100.00
10310;BME280;5200;43.236;27.986;2023-12-04T04:04:16;100835.25;;;0.92;100.00
10310;BME280;5200;43.236;27.986;2023-12-04T04:06:43;100824.34;;;0.83;100.00
10310;BME280;5200;43.236;27.986;2023-12-04T04:09:11;100833.78;;;0.84;100.00
10310;BME280;5200;43.236;27.986;2023-12-04T04:11:38;100852.34;;;0.97;100.00
10310;BME280;5200;43.236;27.986;2023-12-04T04:14:06;100840.56;;;0.89;100.00
10310;BME280;5200;43.236;27.986;2023-12-04T04:16:33;100818.69;;;0.72;100.00
10310;BME280;5200;43.236;27.986;2023-12-04T04:19:00;100844.06;;;0.88;100.00
10310;BME280;5200;43.236;27.986;2023-12-04T04:21:27;100829.56;;;0.82;100.00
10310;BME280;5200;43.236;27.986;2023-12-04T04:23:54;100861.63;;;1.03;100.00
10310;BME280;5200;43.236;27.986;2023-12-04T04:26:22;100864.16;;;1.04;100.00
10310;BME280;5200;43.236;27.986;2023-12-04T04:28:49;100856.44;;;1.03;100.00
10310;BME280;5200;43.236;27.986;2023-12-04T04:31:19;100854.00;;;0.98;100.00
10310;BME280;5200;43.236;27.986;2023-12-04T04:33:46;100846.41;;;0.94;100.00
10310;BME280;5200;43.236;27.986;2023-12-04T04:36:12;100847.38;;;0.91;100.00
10310;BME280;5200;43.236;27.986;2023-12-04T04:38:39;100854.41;;;0.88;100.00
10310;BME280;5200;43.236;27.986;2023-12-04T04:41:06;100876.53;;;0.96;100.00
10310;BME280;5200;43.236;27.986;2023-12-04T04:43:35;100872.31;;;0.94;100.00
10310;BME280;5200;43.236;27.986;2023-12-04T04:46:02;100829.22;;;0.68;100.00
10310;BME280;5200;43.236;27.986;2023-12-04T04:48:29;100869.28;;;0.82;100.00
10310;BME280;5200;43.236;27.986;2023-12-04T04:50:55;100869.28;;;0.82;100.00
10310;BME280;5200;43.236;27.986;2023-12-04T04:53:22;100878.94;;;0.77;100.00
10310;BME280;5200;43.236;27.986;2023-12-04T04:55:49;100886.63;;;0.80;100.00
10310;BME280;5200;43.236;27.986;2023-12-04T04:58:16;100840.75;;;0.59;100.00
10310;BME280;5200;43.236;27.986;2023-12-04T05:00:45;100884.03;;;0.80;100.00
10310;BME280;5200;43.236;27.986;2023-12-04T05:03:12;100863.47;;;0.76;100.00
10310;BME280;5200;43.236;27.986;2023-12-04T05:05:39;100867.69;;;0.78;100.00
10310;BME280;5200;43.236;27.986;2023-12-04T05:08:06;100877.00;;;0.84;100.00
10310;BME280;5200;43.236;27.986;2023-12-04T05:10:33;100859.13;;;0.76;100.00
10310;BME280;5200;43.236;27.986;2023-12-04T05:13:00;100888.22;;;1.08;100.00
10310;BME280;5200;43.236;27.986;2023-12-04T05:15:27;100863.66;;;0.95;100.00
10310;BME280;5200;43.236;27.986;2023-12-04T05:17:55;100887.22;;;1.12;100.00
10310;BME280;5200;43.236;27.986;2023-12-04T05:20:22;100884.78;;;1.08;100.00
10310;BME280;5200;43.236;27.986;2023-12-04T05:22:49;100850.72;;;0.95;100.00
10310;BME280;5200;43.236;27.986;2023-12-04T05:25:17;100852.34;;;0.97;100.00
10310;BME280;5200;43.236;27.986;2023-12-04T05:27:44;100894.09;;;1.13;100.00
10310;BME280;5200;43.236;27.986;2023-12-04T05:30:12;100880.81;;;0.99;100.00
10310;BME280;5200;43.236;27.986;2023-12-04T05:32:39;100867.25;;;0.91;100.00
10310;BME280;5200;43.236;27.986;2023-12-04T05:35:08;100890.28;;;0.98;100.00
10310;BME280;5200;43.236;27.986;2023-12-04T05:37:34;100899.34;;;1.12;100.00
10310;BME280;5200;43.236;27.986;2023-12-04T05:40:01;100891.56;;;1.12;100.00
10310;BME280;5200;43.236;27.986;2023-12-04T05:42:29;100895.78;;;1.14;100.00
10310;BME280;5200;43.236;27.986;2023-12-04T05:44:56;100917.25;;;1.18;100.00
10310;BME280;5200;43.236;27.986;2023-12-04T05:47:23;100905.94;;;1.20;100.00
10310;BME280;5200;43.236;27.986;2023-12-04T05:49:50;100868.72;;;0.98;100.00
10310;BME280;5200;43.236;27.986;2023-12-04T05:52:18;100882.34;;;1.03;100.00
10310;BME280;5200;43.236;27.986;2023-12-04T05:54:45;100871.28;;;0.99;100.00
10310;BME280;5200;43.236;27.986;2023-12-04T05:57:12;100846.53;;;0.91;100.00
10310;BME280;5200;43.236;27.986;2023-12-04T05:59:39;100891.22;;;1.21;100.00
10310;BME280;5200;43.236;27.986;2023-12-04T06:02:05;100898.22;;;1.19;100.00
10310;BME280;5200;43.236;27.986;2023-12-04T06:04:32;100903.22;;;1.23;100.00
10310;BME280;5200;43.236;27.986;2023-12-04T06:06:59;100910.00;;;1.27;100.00
10310;BME280;5200;43.236;27.986;2023-12-04T06:09:27;100914.28;;;1.29;100.00
10310;BME280;5200;43.236;27.986;2023-12-04T06:11:54;100909.19;;;1.25;100.00
10310;BME280;5200;43.236;27.986;2023-12-04T06:14:21;100912.47;;;1.31;100.00
10310;BME280;5200;43.236;27.986;2023-12-04T06:16:48;100904.84;;;1.26;100.00
10310;BME280;5200;43.236;27.986;2023-12-04T06:19:15;100889.25;;;1.27;100.00
10310;BME280;5200;43.236;27.986;2023-12-04T06:21:42;100897.81;;;1.30;100.00
10310;BME280;5200;43.236;27.986;2023-12-04T06:24:10;100898.66;;;1.30;100.00
10310;BME280;5200;43.236;27.986;2023-12-04T06:26:41;100914.69;;;1.41;100.00
10310;BME280;5200;43.236;27.986;2023-12-04T06:29:09;100905.84;;;1.45;100.00
10310;BME280;5200;43.236;27.986;2023-12-04T06:31:36;100920.41;;;1.50;100.00
10310;BME280;5200;43.236;27.986;2023-12-04T06:34:04;100927.09;;;1.55;100.00
10310;BME280;5200;43.236;27.986;2023-12-04T06:36:32;100940.66;;;1.63;100.00
10310;BME280;5200;43.236;27.986;2023-12-04T06:39:02;100939.63;;;1.67;100.00
10310;BME280;5200;43.236;27.986;2023-12-04T06:41:31;100947.06;;;1.77;100.00
10310;BME280;5200;43.236;27.986;2023-12-04T06:44:00;100947.56;;;1.86;100.00
10310;BME280;5200;43.236;27.986;2023-12-04T06:46:28;100907.09;;;1.59;100.00
10310;BME280;5200;43.236;27.986;2023-12-04T06:48:59;100959.78;;;1.83;100.00
10310;BME280;5200;43.236;27.986;2023-12-04T06:51:26;100960.84;;;1.79;100.00
10310;BME280;5200;43.236;27.986;2023-12-04T06:53:52;100983.75;;;1.89;100.00
10310;BME280;5200;43.236;27.986;2023-12-04T06:56:19;100931.56;;;1.52;100.00
10310;BME280;5200;43.236;27.986;2023-12-04T06:58:46;100969.28;;;1.84;100.00
10310;BME280;5200;43.236;27.986;2023-12-04T07:01:14;100966.25;;;1.73;100.00
10310;BME280;5200;43.236;27.986;2023-12-04T07:03:42;100934.00;;;1.56;100.00
10310;BME280;5200;43.236;27.986;2023-12-04T07:06:09;100952.69;;;1.64;100.00
10310;BME280;5200;43.236;27.986;2023-12-04T07:08:35;100970.28;;;1.80;100.00
10310;BME280;5200;43.236;27.986;2023-12-04T07:11:03;100952.78;;;1.63;100.00
10310;BME280;5200;43.236;27.986;2023-12-04T07:13:31;100943.47;;;1.57;100.00
10310;BME280;5200;43.236;27.986;2023-12-04T07:15:58;100966.97;;;1.76;100.00
10310;BME280;5200;43.236;27.986;2023-12-04T07:18:26;100980.50;;;1.84;100.00
10310;BME280;5200;43.236;27.986;2023-12-04T07:20:53;100942.16;;;1.69;100.00
10310;BME280;5200;43.236;27.986;2023-12-04T07:23:20;100973.69;;;1.82;100.00
10310;BME280;5200;43.236;27.986;2023-12-04T07:25:47;100972.91;;;1.80;100.00
10310;BME280;5200;43.236;27.986;2023-12-04T07:28:14;100969.63;;;1.75;100.00
10310;BME280;5200;43.236;27.986;2023-12-04T07:30:41;100987.44;;;1.84;100.00
10310;BME280;5200;43.236;27.986;2023-12-04T07:33:07;100976.19;;;1.83;100.00
10310;BME280;5200;43.236;27.986;2023-12-04T07:35:36;100949.22;;;1.65;100.00
10310;BME280;5200;43.236;27.986;2023-12-04T07:38:02;100944.25;;;1.59;100.00
10310;BME280;5200;43.236;27.986;2023-12-04T07:40:29;100948.59;;;1.59;100.00
10310;BME280;5200;43.236;27.986;2023-12-04T07:42:57;100987.44;;;1.84;100.00
10310;BME280;5200;43.236;27.986;2023-12-04T07:45:24;100966.91;;;1.78;100.00
10310;BME280;5200;43.236;27.986;2023-12-04T07:47:52;100976.16;;;1.85;100.00
10310;BME280;5200;43.236;27.986;2023-12-04T07:50:19;100955.88;;;1.73;100.00
10310;BME280;5200;43.236;27.986;2023-12-04T07:52:47;100984.84;;;1.84;100.00
10310;BME280;5200;43.236;27.986;2023-12-04T07:55:14;100955.53;;;1.58;100.00
10310;BME280;5200;43.236;27.986;2023-12-04T07:57:41;100950.41;;;1.57;100.00
10310;BME280;5200;43.236;27.986;2023-12-04T08:00:09;100967.91;;;1.74;100.00
10310;BME280;5200;43.236;27.986;2023-12-04T08:02:36;100955.38;;;1.63;100.00
10310;BME280;5200;43.236;27.986;2023-12-04T08:05:03;100953.63;;;1.63;100.00
10310;BME280;5200;43.236;27.986;2023-12-04T08:07:30;100977.34;;;1.76;100.00
10310;BME280;5200;43.236;27.986;2023-12-04T08:09:58;100980.72;;;1.78;100.00
10310;BME280;5200;43.236;27.986;2023-12-04T08:12:25;100999.00;;;1.99;100.00
10310;BME280;5200;43.236;27.986;2023-12-04T08:14:52;100984.72;;;1.87;100.00
10310;BME280;5200;43.236;27.986;2023-12-04T08:17:19;100967.91;;;1.74;100.00
10310;BME280;5200;43.236;27.986;2023-12-04T08:19:46;101010.47;;;1.93;100.00
10310;BME280;5200;43.236;27.986;2023-12-04T08:22:13;100969.63;;;1.75;100.00
10310;BME280;5200;43.236;27.986;2023-12-04T08:24:40;101019.81;;;1.97;100.00
10310;BME280;5200;43.236;27.986;2023-12-04T08:27:08;101020.72;;;1.96;100.00
10310;BME280;5200;43.236;27.986;2023-12-04T08:29:36;100976.97;;;1.63;100.00
10310;BME280;5200;43.236;27.986;2023-12-04T08:32:04;101026.03;;;1.93;100.00
10310;BME280;5200;43.236;27.986;2023-12-04T08:34:31;101017.47;;;1.91;100.00
10310;BME280;5200;43.236;27.986;2023-12-04T08:36:58;100995.06;;;1.65;100.00
10310;BME280;5200;43.236;27.986;2023-12-04T08:39:24;101025.25;;;1.91;100.00
10310;BME280;5200;43.236;27.986;2023-12-04T08:41:52;100987.13;;;1.69;100.00
10310;BME280;5200;43.236;27.986;2023-12-04T08:44:20;101028.84;;;1.87;100.00
10310;BME280;5200;43.236;27.986;2023-12-04T08:46:47;100956.56;;;1.54;100.00
10310;BME280;5200;43.236;27.986;2023-12-04T08:49:14;100975.03;;;1.68;100.00
10310;BME280;5200;43.236;27.986;2023-12-04T08:51:40;101019.38;;;1.86;100.00
10310;BME280;5200;43.236;27.986;2023-12-04T08:54:09;101017.94;;;2.01;100.00
10310;BME280;5200;43.236;27.986;2023-12-04T08:56:35;101030.00;;;2.02;100.00
10310;BME280;5200;43.236;27.986;2023-12-04T08:59:02;101010.47;;;1.93;100.00
10310;BME280;5200;43.236;27.986;2023-12-04T09:01:31;101020.25;;;2.08;100.00
10310;BME280;5200;43.236;27.986;2023-12-04T09:03:57;101014.09;;;2.11;100.00
10310;BME280;5200;43.236;27.986;2023-12-04T09:06:24;101012.25;;;2.15;100.00
10310;BME280;5200;43.236;27.986;2023-12-04T09:08:51;101013.13;;;2.14;100.00
10310;BME280;5200;43.236;27.986;2023-12-04T09:11:18;101013.28;;;2.09;100.00
10310;BME280;5200;43.236;27.986;2023-12-04T09:13:45;100974.53;;;1.82;100.00
10310;BME280;5200;43.236;27.986;2023-12-04T09:16:11;100991.72;;;1.85;100.00
10310;BME280;5200;43.236;27.986;2023-12-04T09:18:40;101018.44;;;2.10;100.00
10310;BME280;5200;43.236;27.986;2023-12-04T09:21:07;100983.16;;;1.83;100.00
10310;BME280;5200;43.236;27.986;2023-12-04T09:23:34;101006.81;;;1.97;100.00
10310;BME280;5200;43.236;27.986;2023-12-04T09:26:01;100995.91;;;1.89;100.00
10310;BME280;5200;43.236;27.986;2023-12-04T09:28:29;101015.41;;;1.99;100.00
10310;BME280;5200;43.236;27.986;2023-12-04T09:30:56;101019.00;;;1.95;100.00
10310;BME280;5200;43.236;27.986;2023-12-04T09:33:23;101005.50;;;1.87;100.00
10310;BME280;5200;43.236;27.986;2023-12-04T09:35:51;100999.16;;;1.94;100.00
10310;BME280;5200;43.236;27.986;2023-12-04T09:38:18;100987.88;;;1.95;100.00
10310;BME280;5200;43.236;27.986;2023-12-04T09:40:45;101004.97;;;2.01;100.00
10310;BME280;5200;43.236;27.986;2023-12-04T09:43:12;100994.19;;;1.88;100.00
10310;BME280;5200;43.236;27.986;2023-12-04T09:45:39;100986.41;;;1.88;100.00
10310;BME280;5200;43.236;27.986;2023-12-04T09:48:06;100998.69;;;2.06;100.00
10310;BME280;5200;43.236;27.986;2023-12-04T09:50:35;101003.09;;;2.04;100.00
10310;BME280;5200;43.236;27.986;2023-12-04T09:53:04;100960.94;;;1.76;100.00
10310;BME280;5200;43.236;27.986;2023-12-04T09:55:34;100977.97;;;1.83;100.00
10310;BME280;5200;43.236;27.986;2023-12-04T09:58:01;100996.06;;;1.84;100.00
10310;BME280;5200;43.236;27.986;2023-12-04T10:00:31;100952.94;;;1.58;100.00
10310;BME280;5200;43.236;27.986;2023-12-04T10:02:58;100968.03;;;1.71;100.00
10310;BME280;5200;43.236;27.986;2023-12-04T10:05:26;100950.41;;;1.57;100.00
10310;BME280;5200;43.236;27.986;2023-12-04T10:07:52;100997.53;;;1.92;100.00
10310;BME280;5200;43.236;27.986;2023-12-04T10:10:21;100975.97;;;1.89;100.00
10310;BME280;5200;43.236;27.986;2023-12-04T10:12:48;100955.75;;;1.76;100.00
10310;BME280;5200;43.236;27.986;2023-12-04T10:15:14;100977.78;;;1.87;100.00
10310;BME280;5200;43.236;27.986;2023-12-04T10:17:42;100961.41;;;1.85;100.00
10310;BME280;5200;43.236;27.986;2023-12-04T10:20:11;100987.63;;;2.01;100.00
10310;BME280;5200;43.236;27.986;2023-12-04T10:22:52;100980.19;;;1.92;100.00
10310;BME280;5200;43.236;27.986;2023-12-04T10:25:22;100945.84;;;1.63;100.00
10310;BME280;5200;43.236;27.986;2023-12-04T10:27:51;100983.06;;;1.86;100.00
10310;BME280;5200;43.236;27.986;2023-12-04T10:30:26;100965.09;;;1.80;100.00
10310;BME280;5200;43.236;27.986;2023-12-04T10:32:54;100997.66;;;2.10;100.00
10310;BME280;5200;43.236;27.986;2023-12-04T10:35:26;100974.00;;;1.96;100.00
10310;BME280;5200;43.236;27.986;2023-12-04T10:37:54;100930.03;;;1.69;100.00
10310;BME280;5200;43.236;27.986;2023-12-04T10:40:26;101002.81;;;2.12;100.00
10310;BME280;5200;43.236;27.986;2023-12-04T10:43:10;100999.44;;;2.10;100.00
10310;BME280;5200;43.236;27.986;2023-12-04T10:45:38;100950.56;;;1.76;100.00
10310;BME280;5200;43.236;27.986;2023-12-04T10:48:07;100995.31;;;2.04;100.00
10310;BME280;5200;43.236;27.986;2023-12-04T10:50:35;101007.94;;;2.14;100.00
10310;BME280;5200;43.236;27.986;2023-12-04T10:53:03;100990.09;;;2.04;100.00
10310;BME280;5200;43.236;27.986;2023-12-04T10:55:33;101010.34;;;2.18;100.00
10310;BME280;5200;43.236;27.986;2023-12-04T10:58:06;100965.78;;;1.85;100.00
10310;BME280;5200;43.236;27.986;2023-12-04T11:00:35;100983.47;;;1.97;100.00
10310;BME280;5200;43.236;27.986;2023-12-04T11:03:06;101006.38;;;2.09;100.00
10310;BME280;5200;43.236;27.986;2023-12-04T11:05:39;101009.34;;;2.22;100.00
10310;BME280;5200;43.236;27.986;2023-12-04T11:08:08;100952.41;;;1.96;100.00
10310;BME280;5200;43.236;27.986;2023-12-04T11:10:43;101005.28;;;2.37;100.00
10310;BME280;5200;43.236;27.986;2023-12-04T11:13:15;100959.66;;;2.09;100.00
10310;BME280;5200;43.236;27.986;2023-12-04T11:16:01;100959.88;;;2.03;100.00
10310;BME280;5200;43.236;27.986;2023-12-04T11:18:45;100922.81;;;1.78;100.00
10310;BME280;5200;43.236;27.986;2023-12-04T11:21:28;100985.00;;;2.25;100.00
10310;BME280;5200;43.236;27.986;2023-12-04T11:24:11;100937.44;;;2.02;100.00
10310;BME280;5200;43.236;27.986;2023-12-04T11:41:45;101002.50;;;2.84;100.00
10310;BME280;5200;43.236;27.986;2023-12-04T11:44:13;100935.94;;;2.39;100.00
10310;BME280;5200;43.236;27.986;2023-12-04T11:46:55;100966.59;;;2.51;100.00
10310;BME280;5200;43.236;27.986;2023-12-04T11:49:36;100926.66;;;2.33;100.00
10310;BME280;5200;43.236;27.986;2023-12-04T11:52:33;100903.25;;;2.13;100.00
10310;BME280;5200;43.236;27.986;2023-12-04T11:55:06;100903.47;;;2.29;100.00
10310;BME280;5200;43.236;27.986;2023-12-04T11:58:04;100999.91;;;2.84;100.00
10310;BME280;5200;43.236;27.986;2023-12-04T12:00:42;100942.06;;;2.38;100.00
10310;BME280;5200;43.236;27.986;2023-12-04T12:03:10;100941.91;;;2.41;100.00
10310;BME280;5200;43.236;27.986;2023-12-04T12:05:51;100945.50;;;2.39;100.00
10310;BME280;5200;43.236;27.986;2023-12-04T12:08:32;100937.56;;;2.42;100.00
10310;BME280;5200;43.236;27.986;2023-12-04T12:11:14;100956.47;;;2.45;100.00
10310;BME280;5200;43.236;27.986;2023-12-04T12:14:15;100908.31;;;2.16;100.00
10310;BME280;5200;43.236;27.986;2023-12-04T12:17:00;100914.94;;;2.23;100.00
10310;BME280;5200;43.236;27.986;2023-12-04T12:19:45;100915.81;;;2.24;100.00
10310;BME280;5200;43.236;27.986;2023-12-04T12:22:31;100998.22;;;2.83;100.00
10310;BME280;5200;43.236;27.986;2023-12-04T12:25:16;101007.19;;;2.76;100.00
10310;BME280;5200;43.236;27.986;2023-12-04T12:28:04;100917.97;;;2.13;100.00
10310;BME280;5200;43.236;27.986;2023-12-04T12:31:05;100904.56;;;2.01;100.00
10310;BME280;5200;43.236;27.986;2023-12-04T12:33:52;100927.72;;;2.07;100.00
10310;BME280;5200;43.236;27.986;2023-12-04T12:40:41;100920.16;;;2.01;100.00
10310;BME280;5200;43.236;27.986;2023-12-04T12:50:35;101008.56;;;2.42;100.00
10310;BME280;5200;43.236;27.986;2023-12-04T12:53:20;101002.59;;;2.40;100.00
10310;BME280;5200;43.236;27.986;2023-12-04T12:55:48;100899.75;;;1.92;100.00
10310;BME280;5200;43.236;27.986;2023-12-04T12:58:15;101001.25;;;2.52;100.00
10310;BME280;5200;43.236;27.986;2023-12-04T13:00:46;101034.66;;;2.61;100.00
10310;BME280;5200;43.236;27.986;2023-12-04T13:03:14;101001.66;;;2.41;100.00
10310;BME280;5200;43.236;27.986;2023-12-04T13:05:45;101038.09;;;2.62;100.00
10310;BME280;5200;43.236;27.986;2023-12-04T13:08:15;101004.63;;;2.32;100.00
10310;BME280;5200;43.236;27.986;2023-12-04T13:10:43;101001.06;;;2.35;100.00
10310;BME280;5200;43.236;27.986;2023-12-04T13:13:12;100939.41;;;1.96;100.00
10310;BME280;5200;43.236;27.986;2023-12-04T13:15:41;101036.56;;;2.56;100.00
10310;BME280;5200;43.236;27.986;2023-12-04T13:18:08;101030.41;;;2.37;100.00
10310;BME280;5200;43.236;27.986;2023-12-04T13:20:35;101037.53;;;2.53;100.00
10310;BME280;5200;43.236;27.986;2023-12-04T13:23:04;101048.66;;;2.57;100.00
10310;BME280;5200;43.236;27.986;2023-12-04T13:25:31;100994.09;;;2.35;100.00
10310;BME280;5200;43.236;27.986;2023-12-04T13:27:59;101046.22;;;2.74;100.00